Aeroporto :
LOGIN :

Iscrizione | Disclaimer

   EN    FR    IT 

 










Sommario :    VFR   VFR Marginale   IFR   IFR Intensivo   IFR Molto Intensivo
Visibilità : 
Base nubi : 
>= 8 km
>= 3000ft
5 / 8 km
1000 / 3000 ft
1500m / 5 km
500 / 1000 ft
800 / 1500m
200 / 500 ft
< 800m
< 200 ft
Simboli :   Temporali  Nebbia  Neve Forte  Precipitazioni Forti  Vento > 20 kt
SIGMETs :   Varie  Temporali  Ghiacco  Turbolenza  Onda orograficha  Ceneri Vulcaniche






- Altitudine del aeroporto : 63 ft
- Codice IATA : BZM


EHWO - Woensdrecht Airbase

ULTIMO METAR :
  • 091055Z AUTO 28013KT 240V320 9999 SCT017 BKN021 BKN026 08/06 Q0999 WHT 28015G25KT 9999 SCT020 BKN030 TEMPO 4500 SHRA FEW010 SCT018CB BKN025

METARs OBSOLETI :
  • 091045Z AUTO 28012KT 230V320 9999 SCT018 SCT023 BKN028 08/06 Q0999 WHT 28015G25KT 9999 SCT020 BKN030 TEMPO 4500 SHRA FEW010 SCT018CB BKN025
  • 091025Z AUTO 29011KT 230V340 9999 SCT016 BKN027 BKN031 07/05 Q0999 WHT 28015G25KT 9999 SCT020 BKN030 TEMPO 4500 SHRA FEW010 SCT018CB BKN025
  • 091004Z AUTO 28012KT 240V310 9999 FEW013 BKN015 BKN020 08/06 Q0998 WHT 28015G25KT 9999 SCT020 BKN030 TEMPO 4500 SHRA FEW010 SCT018CB BKN025
  • 090959Z AUTO 27014KT 230V310 9999 SCT014 BKN016 BKN024 08/06 Q0998 GRN 28015G25KT 9999 SCT020 BKN030 TEMPO 4500 SHRA FEW010 SCT018CB BKN025
  • 090955Z AUTO 28014KT 230V310 9999 BKN015 BKN018 BKN023 08/06 Q0998 WHT 28015G25KT 9999 SCT020 BKN030 TEMPO 4500 SHRA FEW010 SCT018CB BKN025
  • 090942Z AUTO 28010KT 240V320 9999 BKN016 BKN020 OVC025 08/06 Q0998 WHT 28015G25KT 9999 SCT020 BKN030 TEMPO 4500 SHRA FEW010 SCT018CB BKN025
  • 090925Z AUTO 27012KT 240V310 9999 -RA SCT012 BKN015CB OVC023 07/06 Q0997 GRN 28015G25KT 9999 SCT020 BKN030 TEMPO 4500 SHRA FEW010 SCT018CB BKN025
  • 090916Z AUTO 27012KT 240V310 9999 -RA FEW014 FEW015CB SCT016 BKN022 07/06 Q0997 WHT 28015G25KT 9999 SCT020 BKN030 TEMPO 4500 SHRA FEW010 SCT018CB BKN025
  • 090902Z AUTO 28012KT 240V320 9000 -SHRA FEW015CB SCT025 BKN029 07/06 Q0997 BLU 28015G25KT 9999 SCT020 BKN030 TEMPO 4500 SHRA FEW010 SCT018CB BKN025
  • 090825Z AUTO 26013KT 240V310 9999 FEW015CB SCT016 BKN021 BKN026 07/05 Q0996 WHT 28015G25KT 9999 SCT020 BKN030 TEMPO 4500 SHRA FEW010 SCT018CB BKN025
  • 090812Z AUTO 27011KT 230V300 9999 FEW015CB SCT020 BKN026 07/05 Q0995 WHT 28015G25KT 9999 SCT020 BKN030 TEMPO 4500 SHRA FEW010 SCT018CB BKN025
  • 090755Z AUTO 27010KT 230V300 9999 FEW015CB SCT028/// BKN039/// 07/06 Q0995 BLU 28015G25KT 9999 SCT020 BKN030 TEMPO 4500 SHRA FEW010 SCT018CB BKN025

TAF TAF EHWO
Valido dal 09 a 06 ore il 09 a 18 ore UTC


090511Z 0906/0918 21012KT 9999 SCT022 BKN045
TEMPO 0906/0916 22015G25KT 4500 -SHRA FEW012 SCT018CB BKN025
PROB30
TEMPO 0906/0916 3000 SHRAGS TSRAGS FEW007 SCT010 SCT015CB BKN020
BECMG 0910/0913 30017G35KT
PROB30
TEMPO 0913/0917 32020G40KT



MetMap, La meteo Aeronautica in un colpo d'occhio ! - Copyright ORBIFLY Dicembre 2007 - Disclaimer

ORBIFLY MET'MAP TEAM :

Programmazione e sviluppo : Alexandra Zaïnal
Concezione : Baudouin d'Aumeries
Aiuto per la programmazione : Marc-Olivier Méhu
Supporto tecnico e logistico : Manuel Goepfert
Aiuto per la traduzione : Arnaldo La Scala

Contatto : metmap@orbifly.com




FONTI E CREDITI :

   NOAA